Time;durP1;ratioP1;P1;durP2;ratioP2;P2;SDS_P1;SDS_P2;PMS_P1;PMS_P2;Temp;Humidity;BMP_temperature;BMP_pressure;BME280_temperature;BME280_humidity;BME280_pressure;Samples;Min_cycle;Max_cycle;Signal;HPM_P1;HPM_P2
2022/10/28 00:02:19;;;;;;;17.15;8.98;;;;;;;25.40;45.17;101759.34;5059632;28;20013;-73
2022/10/28 00:04:45;;;;;;;20.23;9.00;;;;;;;25.54;44.99;101761.22;5048332;28;20485;-73
2022/10/28 00:07:10;;;;;;;26.65;9.70;;;;;;;25.72;45.10;101748.56;5048643;28;20021;-73
2022/10/28 00:09:36;;;;;;;17.45;9.25;;;;;;;26.03;44.16;101752.09;5048908;28;20504;-73
2022/10/28 00:12:01;;;;;;;16.85;9.23;;;;;;;25.89;43.91;101742.19;5049029;28;20048;-73
2022/10/28 00:14:26;;;;;;;15.63;8.82;;;;;;;25.76;44.46;101742.09;5048774;28;20043;-73
2022/10/28 00:16:52;;;;;;;22.05;10.15;;;;;;;25.09;45.97;101742.38;5061109;28;20035;-73
2022/10/28 00:19:17;;;;;;;17.58;8.88;;;;;;;24.63;47.03;101747.63;5061449;28;20086;-73
2022/10/28 00:21:44;;;;;;;16.80;9.32;;;;;;;24.39;47.90;101745.31;5049101;28;20480;-73
2022/10/28 00:24:11;;;;;;;20.92;9.93;;;;;;;23.94;49.05;101741.47;5056696;28;20033;-73
2022/10/28 00:26:41;;;;;;;15.88;9.07;;;;;;;24.68;47.31;101740.22;5051255;28;20060;-73
2022/10/28 00:29:09;;;;;;;19.30;8.93;;;;;;;25.38;45.35;101739.84;5046146;28;20018;-73
2022/10/28 00:31:35;;;;;;;16.83;8.93;;;;;;;24.40;48.43;101741.69;5047965;28;20031;-72
2022/10/28 00:34:03;;;;;;;21.55;9.75;;;;;;;24.20;48.47;101740.09;5047168;28;20119;-72
2022/10/28 00:36:31;;;;;;;15.27;9.60;;;;;;;24.62;48.12;101740.53;5050368;28;20102;-73
2022/10/28 00:38:58;;;;;;;21.75;9.57;;;;;;;24.93;47.13;101734.34;5048715;28;20025;-72
2022/10/28 00:41:36;;;;;;;16.88;9.35;;;;;;;24.34;48.03;101745.53;5048688;28;20389;-72
2022/10/28 00:44:40;;;;;;;19.90;9.50;;;;;;;25.50;44.86;101738.25;5057272;28;20016;-72
2022/10/28 00:47:30;;;;;;;21.80;9.77;;;;;;;25.66;44.28;101736.38;5046548;28;20452;-72
2022/10/28 00:50:03;;;;;;;23.60;9.68;;;;;;;25.16;45.84;101735.72;5065757;28;20032;-72
2022/10/28 00:52:30;;;;;;;16.85;9.00;;;;;;;25.39;45.28;101730.88;5046935;28;20021;-72
2022/10/28 00:54:58;;;;;;;26.42;10.35;;;;;;;24.96;46.20;101733.31;5050956;28;20076;-72
2022/10/28 00:57:29;;;;;;;30.00;10.75;;;;;;;25.28;45.61;101738.63;5049277;28;20056;-72
2022/10/28 00:59:56;;;;;;;21.45;9.35;;;;;;;25.16;45.50;101737.53;5063297;28;20067;-72
2022/10/28 01:02:21;;;;;;;18.92;10.05;;;;;;;24.88;46.21;101737.28;5048092;28;20110;-72
2022/10/28 01:04:47;;;;;;;16.15;9.65;;;;;;;24.47;47.63;101737.75;5045868;28;20476;-72
2022/10/28 01:07:14;;;;;;;19.73;9.90;;;;;;;24.46;47.65;101738.69;5048924;28;20063;-72
2022/10/28 01:09:40;;;;;;;19.75;9.57;;;;;;;23.87;49.25;101728.41;5048994;28;20035;-72
2022/10/28 01:12:30;;;;;;;18.23;9.35;;;;;;;24.59;47.59;101725.50;5049166;28;20033;-72
2022/10/28 01:15:15;;;;;;;18.67;9.75;;;;;;;24.72;46.50;101723.06;5048707;28;20473;-72
2022/10/28 01:17:53;;;;;;;19.35;9.45;;;;;;;24.78;47.05;101719.19;5055500;28;20133;-72
2022/10/28 01:20:34;;;;;;;19.48;10.30;;;;;;;24.23;47.94;101721.22;5052175;28;20485;-72
2022/10/28 01:23:13;;;;;;;24.65;10.00;;;;;;;24.85;46.33;101702.72;5053646;28;20116;-72
2022/10/28 01:25:44;;;;;;;22.75;9.68;;;;;;;24.87;46.41;101707.97;5048448;28;20036;-72
2022/10/28 01:28:39;;;;;;;17.52;9.52;;;;;;;24.58;47.12;101710.44;5060592;28;20036;-72
2022/10/28 01:31:29;;;;;;;30.88;10.43;;;;;;;24.58;47.08;101706.88;5060502;28;20041;-72
2022/10/28 01:34:03;;;;;;;18.05;9.93;;;;;;;24.94;46.49;101703.13;5058523;28;20064;-72
2022/10/28 01:36:41;;;;;;;20.83;9.63;;;;;;;24.81;46.83;101697.59;5051213;28;20048;-72
2022/10/28 01:39:18;;;;;;;23.92;10.68;;;;;;;23.79;49.19;101701.25;5051877;28;20120;-72
2022/10/28 01:42:02;;;;;;;16.90;9.57;;;;;;;23.94;48.51;101704.94;5068277;28;20513;-72
2022/10/28 01:44:45;;;;;;;20.58;9.68;;;;;;;25.07;45.96;101704.13;5061213;28;20040;-72
2022/10/28 01:47:20;;;;;;;26.10;8.80;;;;;;;25.01;46.26;101704.50;5053333;28;20027;-72
2022/10/28 01:49:55;;;;;;;18.25;9.63;;;;;;;24.90;45.89;101699.75;5049857;28;20043;-72
2022/10/28 01:52:25;;;;;;;18.00;9.65;;;;;;;24.69;46.78;101699.19;5051152;28;20116;-72
2022/10/28 01:54:57;;;;;;;16.55;9.48;;;;;;;24.92;46.15;101694.31;5056650;28;20154;-72
2022/10/28 01:57:24;;;;;;;18.38;9.35;;;;;;;24.93;46.07;101688.03;5051892;28;20033;-72
2022/10/28 01:59:51;;;;;;;19.67;10.13;;;;;;;24.86;45.91;101683.03;5051362;28;20133;-72
2022/10/28 02:02:17;;;;;;;23.77;10.10;;;;;;;25.01;45.79;101685.78;5052431;28;20112;-72
2022/10/28 02:04:42;;;;;;;20.25;9.25;;;;;;;24.68;46.16;101684.09;5064281;28;20492;-72
2022/10/28 02:07:08;;;;;;;21.38;10.57;;;;;;;24.38;47.71;101674.13;5065684;28;20028;-72
2022/10/28 02:09:43;;;;;;;20.67;10.32;;;;;;;23.46;49.46;101674.50;5053233;28;20028;-72
2022/10/28 02:12:18;;;;;;;21.55;9.40;;;;;;;24.32;47.64;101674.47;5050278;28;20040;-72
2022/10/28 02:14:52;;;;;;;19.33;9.85;;;;;;;24.40;47.05;101674.91;5053154;28;20082;-72
2022/10/28 02:17:20;;;;;;;19.58;9.95;;;;;;;24.87;46.08;101671.41;5047765;28;20036;-72
2022/10/28 02:20:19;;;;;;;18.00;9.38;;;;;;;24.45;47.27;101686.19;5061420;28;20469;-72
2022/10/28 02:22:50;;;;;;;26.77;9.70;;;;;;;24.35;47.29;101682.31;5051747;28;20393;-72
2022/10/28 02:25:23;;;;;;;26.88;10.38;;;;;;;24.25;47.30;101687.28;5048530;28;20020;-72
2022/10/28 02:27:57;;;;;;;21.02;8.85;;;;;;;24.84;46.71;101676.91;5049795;28;20328;-72
2022/10/28 02:30:27;;;;;;;20.45;8.93;;;;;;;25.01;45.73;101677.75;5051004;28;20607;-72
2022/10/28 02:32:58;;;;;;;21.90;9.20;;;;;;;24.79;46.63;101673.66;5050573;28;20035;-72
2022/10/28 02:35:32;;;;;;;15.07;9.15;;;;;;;25.05;45.89;101679.31;5053452;28;20020;-72
2022/10/28 02:38:01;;;;;;;19.27;9.27;;;;;;;23.93;48.31;101679.19;5050594;28;20389;-73
2022/10/28 02:40:29;;;;;;;20.88;9.73;;;;;;;24.47;47.25;101676.28;5050762;28;20064;-72
2022/10/28 02:43:00;;;;;;;17.75;8.02;;;;;;;24.40;47.36;101672.25;5049541;28;20443;-72
2022/10/28 02:45:31;;;;;;;20.67;8.90;;;;;;;24.35;47.83;101682.31;5056170;28;20044;-72
2022/10/28 02:48:01;;;;;;;17.42;9.60;;;;;;;24.89;45.99;101680.19;5051393;28;20021;-72
2022/10/28 02:50:34;;;;;;;18.40;9.00;;;;;;;24.77;46.61;101675.56;5051640;28;20561;-72
2022/10/28 02:53:01;;;;;;;;;;;;;;;24.76;46.24;101673.81;5060911;28;20033;-72
2022/10/28 02:55:34;;;;;;;21.45;9.43;;;;;;;24.43;47.08;101672.06;5051978;28;20254;-72
2022/10/28 02:57:59;;;;;;;17.08;8.82;;;;;;;24.43;47.15;101672.06;5049884;28;20044;-73
2022/10/28 03:00:25;;;;;;;15.32;8.98;;;;;;;24.53;46.52;101667.91;5049828;28;20063;-72
2022/10/28 03:02:50;;;;;;;17.65;8.82;;;;;;;25.00;45.47;101670.69;5057433;28;20029;-72
2022/10/28 03:05:16;;;;;;;20.40;8.95;;;;;;;25.12;44.81;101675.31;5039333;28;20036;-72
2022/10/28 03:07:42;;;;;;;18.85;8.73;;;;;;;24.66;46.16;101672.59;5049387;28;20052;-72
2022/10/28 03:10:08;;;;;;;22.90;8.50;;;;;;;24.18;47.19;101673.41;5048682;28;20473;-72
2022/10/28 03:12:33;;;;;;;19.58;9.63;;;;;;;24.63;46.10;101668.28;5063765;28;20031;-72
2022/10/28 03:14:59;;;;;;;16.27;8.55;;;;;;;24.39;46.50;101667.84;5065240;28;20384;-72
2022/10/28 03:17:24;;;;;;;17.30;8.32;;;;;;;23.69;48.14;101665.31;5050881;28;20467;-72
2022/10/28 03:19:49;;;;;;;20.98;8.40;;;;;;;24.22;47.72;101658.06;5049327;28;20142;-72
2022/10/28 03:22:15;;;;;;;21.50;8.45;;;;;;;23.66;48.64;101649.47;5049015;28;20029;-72
2022/10/28 03:24:40;;;;;;;16.05;9.23;;;;;;;24.21;47.96;101651.03;5051596;28;20112;-72
2022/10/28 03:27:06;;;;;;;20.27;8.18;;;;;;;23.77;48.58;101652.44;5046139;28;20119;-72
2022/10/28 03:29:31;;;;;;;16.90;8.48;;;;;;;24.76;46.21;101644.41;5049111;28;20396;-72
2022/10/28 03:31:56;;;;;;;16.42;8.30;;;;;;;24.42;46.30;101656.97;5047921;28;20473;-72
2022/10/28 03:34:22;;;;;;;15.75;7.68;;;;;;;23.36;49.67;101652.78;5046694;28;20595;-72
2022/10/28 03:36:47;;;;;;;17.75;8.45;;;;;;;24.26;47.60;101648.09;5047030;28;20550;-72
2022/10/28 03:39:12;;;;;;;15.00;8.80;;;;;;;24.14;47.68;101653.16;5047104;28;20033;-72
2022/10/28 03:41:38;;;;;;;20.77;8.98;;;;;;;24.62;46.38;101644.34;5051669;28;20493;-72
2022/10/28 03:44:03;;;;;;;17.70;8.10;;;;;;;24.86;45.61;101645.59;5051083;28;20311;-72
2022/10/28 03:46:29;;;;;;;14.55;7.47;;;;;;;24.91;45.52;101650.69;5050455;28;20516;-72
2022/10/28 03:48:54;;;;;;;21.65;7.45;;;;;;;24.63;46.35;101656.75;5049154;28;20020;-72
2022/10/28 03:51:20;;;;;;;18.50;8.15;;;;;;;24.85;45.44;101651.91;5048296;28;20028;-72
2022/10/28 03:53:45;;;;;;;17.63;8.82;;;;;;;24.66;46.33;101645.88;5061274;28;20106;-72
2022/10/28 03:56:11;;;;;;;16.90;7.57;;;;;;;24.74;46.02;101643.63;5049311;28;20101;-72
2022/10/28 03:58:36;;;;;;;17.15;8.38;;;;;;;24.35;47.15;101652.94;5049792;28;20047;-72
2022/10/28 04:01:02;;;;;;;18.30;7.93;;;;;;;24.46;46.19;101647.84;5064675;28;20067;-72
2022/10/28 04:03:27;;;;;;;12.73;7.72;;;;;;;25.10;45.04;101645.16;5059567;28;20079;-72
2022/10/28 04:05:52;;;;;;;17.30;7.70;;;;;;;25.03;44.75;101646.44;5047937;28;20021;-72
2022/10/28 04:08:19;;;;;;;14.35;7.13;;;;;;;24.97;45.27;101641.47;5037148;28;20033;-72
2022/10/28 04:10:45;;;;;;;15.90;7.65;;;;;;;24.46;46.28;101629.13;5060962;28;20025;-72
2022/10/28 04:13:11;;;;;;;17.48;8.02;;;;;;;24.52;46.25;101634.16;5048570;28;20087;-72
2022/10/28 04:15:36;;;;;;;14.15;7.72;;;;;;;23.97;47.63;101631.84;5048608;28;20029;-72
2022/10/28 04:18:02;;;;;;;14.80;7.20;;;;;;;24.20;47.42;101636.78;5048855;28;20032;-72
2022/10/28 04:20:28;;;;;;;15.43;7.65;;;;;;;24.62;45.92;101637.19;5052998;28;20031;-72
2022/10/28 04:22:54;;;;;;;15.35;8.02;;;;;;;24.29;46.52;101626.53;5058638;28;20426;-72
2022/10/28 04:25:20;;;;;;;15.18;7.57;;;;;;;24.76;45.67;101640.88;5055152;28;20024;-72
2022/10/28 04:27:46;;;;;;;15.85;7.40;;;;;;;24.34;46.93;101637.84;5050143;28;20021;-72
2022/10/28 04:30:13;;;;;;;22.05;7.75;;;;;;;24.58;45.99;101637.41;5055052;28;20045;-72
2022/10/28 04:32:42;;;;;;;12.13;7.32;;;;;;;24.66;45.66;101635.19;5046130;28;20057;-72
2022/10/28 04:35:08;;;;;;;16.45;7.63;;;;;;;23.66;47.49;101639.66;5047512;28;20028;-72
2022/10/28 04:37:34;;;;;;;18.50;8.00;;;;;;;23.90;47.49;101641.13;5049490;28;20477;-72
2022/10/28 04:39:59;;;;;;;16.15;7.45;;;;;;;24.44;46.66;101636.38;5049406;28;20029;-72
2022/10/28 04:42:25;;;;;;;17.98;7.65;;;;;;;24.10;46.96;101627.56;5049915;28;20484;-72
2022/10/28 04:44:50;;;;;;;14.13;7.57;;;;;;;24.14;46.64;101629.13;5047413;28;20029;-72
2022/10/28 04:47:16;;;;;;;27.67;8.02;;;;;;;24.43;45.78;101623.97;5050138;28;20080;-72
2022/10/28 04:49:41;;;;;;;16.10;7.47;;;;;;;24.32;46.10;101631.72;5049183;28;20064;-72
2022/10/28 04:52:07;;;;;;;16.50;6.93;;;;;;;24.54;45.68;101626.03;5051339;28;20107;-72
2022/10/28 04:54:32;;;;;;;13.75;6.90;;;;;;;24.77;44.89;101640.81;5055692;28;20094;-72
2022/10/28 04:56:58;;;;;;;14.57;7.63;;;;;;;24.37;45.99;101651.00;5053233;28;20032;-72
2022/10/28 04:59:23;;;;;;;16.75;7.10;;;;;;;24.36;45.72;101643.97;5052514;28;20032;-72
2022/10/28 05:01:48;;;;;;;15.02;7.38;;;;;;;24.06;45.87;101642.03;5061778;28;20024;-72
2022/10/28 05:04:14;;;;;;;17.60;7.18;;;;;;;23.98;46.12;101638.91;5051488;28;20077;-72
2022/10/28 05:06:39;;;;;;;16.55;6.80;;;;;;;24.37;44.90;101634.97;5053618;28;20028;-72
2022/10/28 05:09:05;;;;;;;11.75;6.05;;;;;;;24.25;45.78;101635.66;5052883;28;20585;-72
2022/10/28 05:11:30;;;;;;;18.15;8.18;;;;;;;24.18;45.80;101636.03;5053695;28;20116;-72
2022/10/28 05:13:55;;;;;;;14.57;6.82;;;;;;;24.46;45.30;101631.81;5051040;28;20025;-72
2022/10/28 05:16:21;;;;;;;14.65;6.90;;;;;;;24.29;45.41;101631.88;5054092;28;20514;-72
2022/10/28 05:18:46;;;;;;;12.88;6.63;;;;;;;24.26;45.56;101632.91;5052424;28;20081;-72
2022/10/28 05:21:12;;;;;;;19.23;7.50;;;;;;;24.39;45.66;101627.75;5052694;28;20065;-72
2022/10/28 05:23:37;;;;;;;18.45;7.03;;;;;;;23.88;46.58;101618.03;5051781;28;20013;-72
2022/10/28 05:26:03;;;;;;;18.45;6.82;;;;;;;24.35;45.74;101612.84;5052774;28;20032;-72
2022/10/28 05:28:28;;;;;;;17.15;7.30;;;;;;;23.42;47.71;101620.44;5057209;28;20024;-72
2022/10/28 05:30:54;;;;;;;14.05;7.10;;;;;;;23.46;47.94;101619.34;5070177;28;22259;-72
2022/10/28 05:33:19;;;;;;;13.60;7.28;;;;;;;24.04;46.25;101615.41;5051905;28;20035;-72
2022/10/28 05:35:45;;;;;;;16.20;6.90;;;;;;;23.83;47.08;101625.41;5053968;28;20107;-72
2022/10/28 05:38:11;;;;;;;18.15;7.07;;;;;;;23.30;48.19;101626.41;5047705;28;20024;-72
2022/10/28 05:40:36;;;;;;;20.17;7.10;;;;;;;23.86;46.83;101622.59;5052715;28;20029;-72
2022/10/28 05:43:02;;;;;;;15.82;6.80;;;;;;;23.82;46.48;101633.50;5052607;28;20167;-72
2022/10/28 05:45:28;;;;;;;16.13;6.55;;;;;;;24.12;45.74;101631.00;5062866;28;20021;-72
2022/10/28 05:47:53;;;;;;;13.10;6.65;;;;;;;23.74;46.80;101628.59;5052837;28;20524;-72
2022/10/28 05:50:19;;;;;;;12.05;5.90;;;;;;;24.11;46.20;101618.63;5052964;28;20170;-72
2022/10/28 05:52:53;;;;;;;17.38;7.40;;;;;;;24.01;45.86;101620.06;5048739;28;20063;-72
2022/10/28 05:55:21;;;;;;;12.25;6.38;;;;;;;24.13;46.17;101616.72;5051679;28;20033;-72
2022/10/28 05:57:48;;;;;;;18.00;7.25;;;;;;;23.33;47.85;101623.59;5051807;28;20021;-72
2022/10/28 06:00:14;;;;;;;19.23;6.32;;;;;;;24.08;45.97;101621.44;5052746;28;20025;-72
2022/10/28 06:02:40;;;;;;;13.48;6.15;;;;;;;23.97;45.90;101613.16;5050366;28;20024;-73
2022/10/28 06:05:07;;;;;;;17.92;6.25;;;;;;;23.72;47.14;101612.63;5053256;28;20494;-72
2022/10/28 06:07:33;;;;;;;12.05;6.20;;;;;;;23.87;46.32;101605.59;5049920;28;20115;-72
2022/10/28 06:09:59;;;;;;;15.25;6.25;;;;;;;23.87;46.85;101608.28;5055189;28;20392;-72
2022/10/28 06:12:25;;;;;;;12.68;6.05;;;;;;;23.99;46.21;101605.94;5052571;28;20517;-73
2022/10/28 06:14:50;;;;;;;10.57;6.30;;;;;;;23.87;46.09;101616.28;5051087;28;20029;-72
2022/10/28 06:17:16;;;;;;;14.45;6.53;;;;;;;23.74;47.01;101609.03;5064110;28;20104;-73
2022/10/28 06:19:41;;;;;;;11.88;6.00;;;;;;;23.75;46.82;101616.94;5072623;28;20143;-73
2022/10/28 06:22:06;;;;;;;12.38;5.75;;;;;;;23.67;46.71;101605.81;5059838;28;20029;-73
2022/10/28 06:24:32;;;;;;;15.98;6.30;;;;;;;24.01;46.24;101606.69;5046657;28;20149;-73
2022/10/28 06:26:57;;;;;;;18.48;6.35;;;;;;;24.05;46.39;101600.25;5052053;28;20405;-73
2022/10/28 06:29:22;;;;;;;19.08;7.57;;;;;;;24.44;45.19;101598.09;5051618;28;20393;-72
2022/10/28 06:31:48;;;;;;;19.95;6.60;;;;;;;24.03;46.71;101604.81;5067537;28;20024;-73
2022/10/28 06:34:13;;;;;;;11.85;6.57;;;;;;;23.91;47.36;101608.16;5050128;28;20017;-72
2022/10/28 06:36:38;;;;;;;17.15;6.32;;;;;;;24.16;46.15;101600.50;5049249;28;20836;-72
2022/10/28 06:39:05;;;;;;;22.30;6.68;;;;;;;24.31;45.55;101597.94;5053365;28;20510;-72
2022/10/28 06:41:30;;;;;;;20.98;7.85;;;;;;;23.92;46.51;101601.84;5053200;28;20056;-74
2022/10/28 06:43:56;;;;;;;15.27;6.97;;;;;;;24.20;45.65;101610.06;5049311;28;20024;-73
2022/10/28 06:46:21;;;;;;;17.08;6.03;;;;;;;24.37;45.71;101597.59;5051861;28;20055;-72
2022/10/28 06:48:47;;;;;;;17.85;7.82;;;;;;;24.24;45.67;101608.09;5050243;28;20032;-72
2022/10/28 06:51:12;;;;;;;14.52;6.72;;;;;;;24.12;46.61;101609.63;5047898;28;20028;-73
2022/10/28 06:53:38;;;;;;;18.13;6.47;;;;;;;23.88;46.93;101610.03;5045283;28;20041;-72
2022/10/28 06:56:04;;;;;;;17.45;6.72;;;;;;;24.14;46.46;101618.44;5045273;28;20031;-72
2022/10/28 06:58:29;;;;;;;17.73;6.80;;;;;;;24.03;46.79;101620.84;5041485;28;20029;-72
2022/10/28 07:00:54;;;;;;;21.23;6.22;;;;;;;24.19;46.34;101621.72;5050923;28;20024;-72
2022/10/28 07:03:20;;;;;;;14.90;6.95;;;;;;;23.90;47.14;101633.13;5060091;28;20473;-72
2022/10/28 07:05:47;;;;;;;14.68;6.38;;;;;;;24.08;46.80;101629.44;5049794;28;20033;-72
2022/10/28 07:08:13;;;;;;;17.00;6.20;;;;;;;23.30;48.34;101623.75;5051967;28;20112;-72
2022/10/28 07:10:39;;;;;;;17.63;6.35;;;;;;;23.74;48.02;101625.03;5050556;28;20112;-72
2022/10/28 07:13:05;;;;;;;16.13;6.55;;;;;;;23.75;48.16;101629.44;5048759;28;20029;-72
2022/10/28 07:15:30;;;;;;;19.20;6.65;;;;;;;23.81;47.39;101632.63;5044133;28;20079;-73
2022/10/28 07:17:57;;;;;;;14.13;6.57;;;;;;;24.31;46.91;101617.50;5059048;28;20029;-73
2022/10/28 07:20:26;;;;;;;16.15;6.57;;;;;;;23.78;47.90;101632.81;5048221;28;20168;-72
2022/10/28 07:22:56;;;;;;;17.00;6.25;;;;;;;24.19;47.32;101635.09;5034108;28;20068;-72
2022/10/28 07:25:21;;;;;;;22.00;7.10;;;;;;;24.24;47.40;101644.66;5033290;28;20029;-73
2022/10/28 07:27:47;;;;;;;10.02;5.63;;;;;;;24.41;47.33;101649.91;5036361;28;20507;-72
2022/10/28 07:30:12;;;;;;;18.00;5.97;;;;;;;24.81;45.48;101653.03;5043310;28;20032;-73
2022/10/28 07:32:38;;;;;;;15.38;6.28;;;;;;;24.61;46.35;101637.25;5049717;28;20025;-73
2022/10/28 07:35:03;;;;;;;14.10;5.75;;;;;;;23.98;48.35;101641.59;5049177;28;20108;-72
2022/10/28 07:37:29;;;;;;;18.80;6.20;;;;;;;23.42;49.62;101631.09;5046235;28;20076;-72
2022/10/28 07:39:54;;;;;;;22.85;6.38;;;;;;;23.78;49.79;101643.50;5056835;28;20033;-72
2022/10/28 07:42:19;;;;;;;16.38;6.28;;;;;;;23.93;49.83;101651.63;5046414;28;20029;-73
2022/10/28 07:44:45;;;;;;;16.80;6.45;;;;;;;24.85;46.90;101651.91;5039096;28;20012;-72
2022/10/28 07:47:10;;;;;;;21.55;6.63;;;;;;;24.77;46.95;101648.81;5046797;28;20510;-73
2022/10/28 07:49:35;;;;;;;12.50;5.60;;;;;;;24.24;47.77;101658.00;5049487;28;20370;-72
2022/10/28 07:52:01;;;;;;;18.17;6.70;;;;;;;24.50;47.53;101651.22;5048099;28;20456;-73
2022/10/28 07:54:27;;;;;;;15.50;5.88;;;;;;;25.12;46.22;101661.94;5043438;28;20041;-72
2022/10/28 07:56:54;;;;;;;21.52;7.72;;;;;;;24.97;46.77;101649.47;5050373;28;20049;-72
2022/10/28 07:59:19;;;;;;;14.20;5.95;;;;;;;25.04;46.77;101659.72;5049741;28;20060;-72
2022/10/28 08:01:45;;;;;;;16.58;7.00;;;;;;;25.16;45.81;101665.31;5046421;28;20025;-72
2022/10/28 08:04:10;;;;;;;17.98;5.70;;;;;;;24.98;46.86;101656.56;5047423;28;20106;-72
2022/10/28 08:06:36;;;;;;;14.57;6.10;;;;;;;25.37;45.74;101663.22;5049732;28;20037;-72
2022/10/28 08:09:02;;;;;;;16.77;6.20;;;;;;;25.60;45.39;101655.63;5049166;28;20462;-72
2022/10/28 08:11:27;;;;;;;19.90;5.70;;;;;;;25.10;46.75;101655.84;5051931;28;20036;-72
2022/10/28 08:13:54;;;;;;;17.15;6.53;;;;;;;25.01;47.00;101667.06;5049626;28;20029;-72
2022/10/28 08:16:19;;;;;;;16.05;6.00;;;;;;;25.77;45.49;101659.94;5047574;28;20099;-72
2022/10/28 08:18:45;;;;;;;13.35;5.90;;;;;;;25.86;45.25;101665.59;5050131;28;20028;-72
2022/10/28 08:21:11;;;;;;;17.45;6.38;;;;;;;25.61;46.23;101666.22;5050328;28;20481;-72
2022/10/28 08:23:37;;;;;;;16.77;6.63;;;;;;;26.46;44.67;101658.31;5049864;28;20033;-72
2022/10/28 08:26:03;;;;;;;15.10;5.88;;;;;;;26.19;44.94;101664.47;5049300;28;20553;-72
2022/10/28 08:28:29;;;;;;;13.77;5.97;;;;;;;26.45;45.01;101655.72;5049399;28;20063;-71
2022/10/28 08:31:00;;;;;;;15.43;6.22;;;;;;;26.54;44.12;101660.47;5051094;28;20064;-72
2022/10/28 08:33:25;;;;;;;21.20;6.47;;;;;;;26.40;45.19;101658.69;5048048;28;20467;-73
2022/10/28 08:35:50;;;;;;;17.85;6.43;;;;;;;27.20;43.92;101661.53;5034802;28;20029;-73
2022/10/28 08:38:16;;;;;;;14.65;5.50;;;;;;;26.52;44.63;101657.06;5060308;28;20029;-73
2022/10/28 08:40:53;;;;;;;15.18;5.55;;;;;;;26.56;44.38;101664.78;5046325;28;20108;-73
2022/10/28 08:43:40;;;;;;;17.05;6.00;;;;;;;26.18;45.16;101653.84;5044258;28;20033;-73
2022/10/28 08:46:23;;;;;;;12.52;5.57;;;;;;;25.79;46.03;101666.91;5054916;28;20056;-72
2022/10/28 08:48:49;;;;;;;15.32;6.72;;;;;;;26.85;44.65;101654.00;5066096;28;20025;-73
2022/10/28 08:51:22;;;;;;;18.55;6.50;;;;;;;26.80;44.33;101648.09;5047195;28;20067;-73
2022/10/28 08:53:57;;;;;;;15.88;5.53;;;;;;;26.89;44.26;101642.13;5046611;28;20049;-73
2022/10/28 08:56:47;;;;;;;20.80;6.85;;;;;;;26.91;44.37;101650.94;5044114;28;20060;-72
2022/10/28 08:59:36;;;;;;;17.67;6.07;;;;;;;26.70;44.28;101655.03;5019144;28;20115;-72
2022/10/28 09:02:23;;;;;;;19.23;5.78;;;;;;;26.78;43.74;101652.69;5048924;28;20447;-73
2022/10/28 09:05:04;;;;;;;16.45;6.25;;;;;;;25.62;46.86;101656.38;5046958;28;20036;-73
2022/10/28 09:07:32;;;;;;;16.02;5.57;;;;;;;26.89;43.78;101650.16;5041240;28;20041;-73
2022/10/28 09:09:58;;;;;;;15.82;5.88;;;;;;;26.76;43.86;101654.59;5047550;28;20469;-73
2022/10/28 09:12:33;;;;;;;9.93;5.00;;;;;;;25.93;45.82;101662.53;5042944;28;20047;-73
2022/10/28 09:15:17;;;;;;;12.82;5.50;;;;;;;26.73;44.27;101650.31;5046162;28;20028;-72
2022/10/28 09:17:42;;;;;;;16.58;5.75;;;;;;;26.77;44.48;101659.03;5045502;28;20401;-72
2022/10/28 09:20:38;;;;;;;11.68;5.88;;;;;;;27.74;42.59;101657.84;5046141;28;20029;-73
2022/10/28 09:23:15;;;;;;;17.55;5.88;;;;;;;27.65;43.11;101658.50;5031231;28;20065;-73
2022/10/28 09:25:52;;;;;;;18.73;7.65;;;;;;;27.85;42.54;101659.78;5049638;28;20039;-73
2022/10/28 09:28:29;;;;;;;19.60;6.00;;;;;;;27.74;42.83;101660.53;5048046;28;20051;-72
2022/10/28 09:31:27;;;;;;;17.90;5.93;;;;;;;28.07;41.66;101653.78;5036285;28;20091;-72
2022/10/28 09:34:13;;;;;;;13.27;5.80;;;;;;;28.14;41.39;101659.59;5041305;28;20151;-73
2022/10/28 09:36:50;;;;;;;14.00;5.45;;;;;;;28.14;41.94;101659.59;5048881;28;20025;-73
2022/10/28 09:39:22;;;;;;;17.50;7.05;;;;;;;27.78;42.57;101650.47;5049208;28;20028;-72
2022/10/28 09:41:49;;;;;;;17.23;6.10;;;;;;;27.68;43.30;101660.13;5046325;28;20469;-73
2022/10/28 09:44:23;;;;;;;13.30;5.88;;;;;;;27.98;42.60;101653.56;5053243;28;20025;-72
2022/10/28 09:46:54;;;;;;;16.73;6.43;;;;;;;28.26;42.33;101656.00;5050667;28;20039;-72
2022/10/28 09:49:33;;;;;;;15.70;5.97;;;;;;;27.99;42.90;101655.28;5051311;28;20106;-72
2022/10/28 09:52:03;;;;;;;15.10;5.55;;;;;;;27.79;43.90;101644.09;5049169;28;20029;-72
2022/10/28 09:54:33;;;;;;;21.48;5.15;;;;;;;28.25;42.41;101643.53;5049495;28;20052;-73
2022/10/28 09:57:00;;;;;;;18.58;6.45;;;;;;;28.19;42.77;101652.06;5034198;28;20033;-72
2022/10/28 09:59:25;;;;;;;16.23;5.40;;;;;;;28.47;42.64;101641.97;5041315;28;20100;-72
2022/10/28 10:01:51;;;;;;;15.63;5.53;;;;;;;28.48;41.78;101626.69;5053656;28;20119;-72
2022/10/28 10:04:22;;;;;;;12.80;5.28;;;;;;;28.37;42.33;101627.47;5041803;28;20024;-72
2022/10/28 10:06:56;;;;;;;18.05;5.68;;;;;;;28.20;42.27;101643.00;5048993;28;20057;-72
2022/10/28 10:09:27;;;;;;;13.80;4.85;;;;;;;28.78;41.40;101626.28;5048810;28;20025;-72
2022/10/28 10:11:58;;;;;;;19.65;5.18;;;;;;;28.31;42.54;101633.31;5041261;28;20023;-72
2022/10/28 10:14:29;;;;;;;23.20;6.13;;;;;;;27.79;42.97;101629.81;5039534;28;20021;-71
2022/10/28 10:16:59;;;;;;;16.40;5.55;;;;;;;28.13;43.22;101636.38;5050576;28;20113;-72
2022/10/28 10:19:24;;;;;;;12.00;4.88;;;;;;;28.42;42.45;101642.28;5039748;28;20021;-71
2022/10/28 10:21:53;;;;;;;19.15;4.97;;;;;;;28.50;42.81;101652.50;5038163;28;20029;-72
2022/10/28 10:24:32;;;;;;;18.52;5.03;;;;;;;27.87;43.90;101657.84;5051549;28;20477;-72
2022/10/28 10:27:00;;;;;;;17.60;5.63;;;;;;;28.22;43.12;101646.44;5046957;28;20087;-72
2022/10/28 10:29:27;;;;;;;16.80;5.72;;;;;;;28.07;42.83;101644.88;5053617;28;20035;-72
2022/10/28 10:32:20;;;;;;;16.73;5.30;;;;;;;28.77;41.54;101651.47;5044734;28;20484;-72
2022/10/28 10:35:25;;;;;;;12.63;5.23;;;;;;;28.56;41.82;101654.75;5048571;28;20029;-72
2022/10/28 10:37:52;;;;;;;19.05;5.88;;;;;;;29.12;40.97;101653.31;5023636;28;20287;-72
2022/10/28 10:40:32;;;;;;;20.60;5.05;;;;;;;28.90;40.95;101646.88;5036646;28;20091;-72
2022/10/28 10:43:38;;;;;;;14.73;5.03;;;;;;;28.73;41.78;101648.16;5049240;28;20029;-72
2022/10/28 10:46:11;;;;;;;16.13;4.75;;;;;;;28.59;41.73;101654.53;5046872;28;20041;-72
2022/10/28 10:48:37;;;;;;;16.83;5.25;;;;;;;27.69;43.07;101659.16;5035114;28;20033;-72
2022/10/28 10:51:14;;;;;;;22.63;4.88;;;;;;;28.59;41.42;101659.91;5046497;28;20028;-72
2022/10/28 10:53:40;;;;;;;15.23;5.55;;;;;;;28.69;40.75;101664.63;5037540;28;20040;-72
2022/10/28 10:56:11;;;;;;;14.27;4.82;;;;;;;28.82;40.65;101654.66;5047977;28;20071;-71
2022/10/28 10:58:45;;;;;;;17.90;4.65;;;;;;;29.07;40.59;101652.81;5043668;28;20100;-72
2022/10/28 11:01:21;;;;;;;14.93;4.90;;;;;;;28.50;40.51;101652.50;5045190;28;20025;-72
2022/10/28 11:04:01;;;;;;;15.93;4.75;;;;;;;28.03;42.33;101662.19;5047540;28;20029;-71
2022/10/28 11:06:29;;;;;;;17.60;5.28;;;;;;;28.71;40.37;101654.59;5032890;28;20395;-72
2022/10/28 11:08:58;;;;;;;13.75;4.70;;;;;;;29.33;40.31;101658.06;5030394;28;20039;-71
2022/10/28 11:11:35;;;;;;;14.32;4.32;;;;;;;28.74;40.47;101644.50;5040860;28;20083;-72
2022/10/28 11:14:05;;;;;;;12.15;4.95;;;;;;;28.72;40.64;101656.34;5046706;28;20054;-72
2022/10/28 11:16:31;;;;;;;21.30;4.82;;;;;;;29.21;39.62;101663.41;5038859;28;20029;-72
2022/10/28 11:18:56;;;;;;;19.77;5.90;;;;;;;28.94;40.21;101664.50;5052655;28;20032;-73
2022/10/28 11:21:25;;;;;;;25.92;5.28;;;;;;;29.68;38.71;101667.94;5031253;28;21071;-73
2022/10/28 11:23:59;;;;;;;28.38;5.70;;;;;;;29.45;39.11;101657.13;5058635;28;20039;-73
2022/10/28 11:26:25;;;;;;;12.80;4.57;;;;;;;30.06;38.14;101672.16;5043841;28;20040;-73
2022/10/28 11:29:13;;;;;;;15.43;4.72;;;;;;;29.25;39.96;101672.97;5047198;28;20040;-73